AirNav   Air Wisconsin pilot careers
 
 1013 users online  

48X Airport Manatee
Palmetto, Florida, USA

GOING TO PALMETTO?


FAA INFORMATION EFFECTIVE 21 JUNE 2018

Location

FAA Identifier: 48X
Lat/Long: 27-38-33.3500N / 082-31-11.7000W
27-38.555833N / 082-31.195000W
27.6425972 / -82.5199167
(estimated)
Elevation: 27 ft. / 8 m (estimated)
Variation: 02W (1985)
From city: 7 miles NE of PALMETTO, FL
Time zone: UTC -4 (UTC -5 during Standard Time)
Zip code: 34221

Airport Operations

Airport use: Open to the public
Activation date: 05/1977
Control tower: no
ARTCC: MIAMI CENTER
FSS: SAINT PETERSBURG FLIGHT SERVICE STATION
NOTAMs facility: PIE (NOTAM-D service available)
Attendance: SAT 0900-1200, ALL MON-FRI 0900-1700
CALL AMGR FOR AFTER HRS SVC AND CHECK RY CONDITIONS 941-722-9296.
Wind indicator: yes
Segmented circle: yes
Lights: LIRL RWY 7/25 AVBL BY PHONE REQUEST 941-722-9296.

Airport Communications

CTAF: 122.9
WX ASOS at SPG (9 nm NW): 118.875 (727-821-4334)
WX ASOS at SRQ (15 nm S): 124.375 (941-359-0117)
WX AWOS-3 at TPF (17 nm N): 118.925 (813-251-6824)
WX ASOS at PIE (18 nm NW): PHONE 727-531-3456
WX ASOS at TPA (20 nm N): PHONE 813-873-7228

Nearby radio navigation aids

VOR radial/distance  VOR name  Freq  Var
SRQr014/14.3SARASOTA VOR/DME117.0005W
PIEr156/18.1ST PETERSBURG VORTAC116.4005W
LALr231/33.9LAKELAND VORTAC116.0001E

Airport Services

Fuel available: 100LL
FUEL AVBL DAILY SR-SS.
Parking: hangars and tiedowns

Runway Information

Runway 7/25

Dimensions: 3120 x 100 ft. / 951 x 30 m
Surface: turf, in good condition
Runway edge lights: low intensity
Runway edge markings: RY 07 AND 25 THLDS MARKED BY THREE GREEN LGTS AND ONE BUCKET ON EACH SIDE OF RY.
RUNWAY 7  RUNWAY 25
Latitude: 27-38.496667N27-38.615000N
Longitude: 082-31.476667W082-30.913333W
Traffic pattern: rightleft
Obstructions: 34 ft. trees, 739 ft. from runway, 125 ft. left of centerline, 21:1 slope to clear
8 FT TREES 90-100 FT S OF RY CNTRLN FULL LENGTH. ACFT HANGARS 135 FT L OF CNTRLN FIRST HALF OF RY 07. ACFT PARKED 100 FT R OF CNTRLN FIRST 1/3 OF RY 25.
27 ft. tree, 634 ft. from runway, 115 ft. right of centerline, 23:1 slope to clear

Airport Ownership and Management from official FAA records

Ownership: Privately-owned
Owner: REEDER FARMS LLC
14108 U.S. HIGHWAY 41 NORTH
PALMETTO, FL 34221
Phone 941-722-9296
CONTACT PERSON: TOM REEDER: 941-722-9296
Manager: TOM REEDER
14108 U.S. HIGHWAY 41 NORTH
PALMETTO, FL 34221
Phone 941-722-9296
AIRPORT PHYSICAL ADDRESS: 14108 U.S. HIGHWAY 41 NORTH; FAX: 941-721-9067

Airport Operational Statistics

Aircraft based on the field: 55
Single engine airplanes: 39
Ultralights: 16
    
Aircraft operations: avg 136/week *
70% local general aviation
28% transient general aviation
1% military
* for 12-month period ending 14 December 2016

Additional Remarks

BIRDS, WILDLIFE AND DEER ON AND INVOF ARPT.
RY 07/25 FIRST 500 FT EAST END SOFT AFTER HEAVY SEASONAL RAINS.
RY 7/25 SPRINKLERS ACTIVE MON-THU 2000-0500.
AIRPORT CLSD TO TURBINE HELI OPS INCLUDING HOVER AND PRACTICE MANUEVERS AT NE FIELD ADJ TO RWY 7/25 EXC BELL JET RANGERS, EMERG. CALL IN ADVANCE 941-722-9296.

Instrument Procedures

There are no published instrument procedures at 48X.

Some nearby airports with instrument procedures:

KSPG - Albert Whitted Airport (9 nm NW)
KMCF - MacDill Air Force Base (12 nm N)
KSRQ - Sarasota/Bradenton International Airport (15 nm S)
KTPF - Peter O Knight Airport (17 nm N)
KPIE - St Pete-Clearwater International Airport (18 nm NW)
KTPA - Tampa International Airport (20 nm N)
 
Loc | Ops | Rwys | IFR | FBO | Links
Com | Nav | Svcs | Stats | Notes


 
Area around 48X (Airport Manatee)
 
Road maps at: MapQuest Bing Google
 
Aerial photo
WARNING: Photo may not be current or correct
Aerial photo of 48X (Airport Manatee)
Photo courtesy of PhotosFromTheAir.com
Photo taken 26-Apr-2012
looking northeast.

Do you have a better or more recent aerial photo of Airport Manatee that you would like to share? If so, please send us your photo.

 
Sectional chart

 
Airport distance calculator
Flying to Airport Manatee? Find the distance to fly.

From to 48X

Sunrise and sunset
Times for 17-Jul-2018
 Local
(UTC-4)
 Zulu
(UTC)
Morning civil twilight06:2010:20
Sunrise06:4610:46
Sunset20:2600:26
Evening civil twilight20:5200:52

Current date and time
Zulu (UTC)  17-Jul-2018 12:26:03
Local (UTC-4)  17-Jul-2018 08:26:03
 
METAR
KSPG 
10nm NW 
171153Z 24004KT 10SM CLR 29/24 A3007 RMK AO2 SLP181 T02940244 10300 20283 53008
KMCF 
12nm N 
171156Z AUTO 13005KT 10SM CLR 29/24 A3008 RMK AO2 SLP189 60000 T02940238 10294 20260 52008 FZRANO $
KSRQ 
15nm S 
171153Z 15006KT 10SM CLR 27/26 A3008 RMK AO2 SLP184 T02720256 10272 20256 53009
KTPF 
17nm N 
171155Z AUTO 19005KT 10SM BKN110 28/25 A3009 RMK AO2
KPIE 
19nm NW 
171153Z 00000KT 10SM SCT029 27/26 A3008 RMK AO2 SLP186 T02720256 10272 20256 53009
KTPA 
19nm N 
171153Z 16005KT 10SM FEW028 SCT250 29/24 A3009 RMK AO2 SLP187 CB DSNT W T02890244 10289 20278 53008
TAF
KMCF 
12nm N 
170800Z 1708/1814 25006KT 9999 FEW030 FEW150 QNH3000INS BECMG 1713/1714 23009KT 9999 FEW020 SCT040 SCT100 QNH3006INS BECMG 1716/1717 23010G15KT 9999 VCTS SCT020 BKN040CB BKN100 QNH3002INS BECMG 1722/1723 24006KT 9999 NSW SCT035 SCT100 QNH3000INS BECMG 1803/1804 24006KT 9999 BKN035 BKN100 QNH3000INS TX34/1719Z TN23/1709Z
KSRQ 
15nm S 
171120Z 1712/1812 15004KT P6SM FEW025 SCT250 FM171400 21007KT P6SM VCSH SCT025 BKN250 FM171600 22009KT P6SM VCTS SCT035CB BKN050 BKN150 FM172100 25009KT P6SM SCT050 BKN150 FM180200 23006KT P6SM SCT030 BKN150 FM181000 23006KT P6SM VCSH SCT035 SCT150 BKN250
KPIE 
19nm NW 
171120Z 1712/1812 18004KT P6SM VCSH FEW025 BKN250 FM171400 21008KT P6SM VCSH SCT025 BKN250 FM171600 23012KT P6SM VCTS SCT035CB BKN050 BKN150 FM172100 25010KT P6SM SCT040 BKN150 FM180200 22005KT P6SM SCT030 BKN150 FM181000 22006KT P6SM VCSH SCT035 SCT150 BKN250
KTPA 
19nm N 
171120Z 1712/1818 18003KT P6SM VCSH FEW025 BKN250 FM171400 21007KT P6SM VCSH SCT025 BKN250 FM171600 24010KT P6SM VCTS SCT035CB BKN050 BKN150 FM172200 25008KT P6SM SCT040 BKN150 FM180200 22005KT P6SM SCT030 BKN150 FM181000 23006KT P6SM VCSH SCT035 SCT150 BKN250 FM181600 23010KT P6SM VCTS SCT035CB BKN050
NOTAMs
Click for the latest NOTAMs
NOTAMs are issued by the DoD/FAA and will open in a separate window not controlled by AirNav.

 

 
 

FBO, Fuel Providers, and Aircraft Ground Support

  
 Business Name 
 
 Contact 
 
 Services / Description 
 
Fuel Prices
 
Comments
  
Airport Manatee 941-722-9296
[web site]
[email]
Airport management, Aviation fuel, Aircraft parking (ramp or tiedown), Hangars, Hangar leasing / sales, Passenger terminal and lounge, Flight training, ...

More info about Airport Manatee
independent
100LL
SS $4.23 
 Updated 13-Jul-2018
 
   4 read write
SS=Self service
Update Fuel Prices
 

Would you like to see your business listed on this page?

 If your business provides an interesting product or service to pilots, flight crews, aircraft, or users of the Airport Manatee, you should consider listing it here.  To start the listing process, click on the button below
 
Add a business
 

Other Pages about Airport Manatee

airportmanatee48x.com
 
Update a link
 
Copyright © AirNav, LLC. All rights reserved. Privacy Policy  Contact